Audubon, PA (19407)

8:26 AM EDT on September 04, 2015 (GMT -0400)
Beacon Hill Lane | | Change Station
CLOSE
Current Station
Personal Weather Station
Location: Phoenixville, PA
Elevation: 407 ft
Nearby Weather Stations

Elev 407 ft 40.10 °N, 75.49 °W | Updated 37 seconds ago

Clear
Clear
72.3 °F
Feels Like 71 °F
N
0.0
Wind Variable Wind from NNW
Gusts 0.0 mph

Today
High -- | Low -- °F
--% Chance of Precip.
Yesterday
High -- | Low -- °F
Precip. -- in
6:32 AM 7:28 PM
Waning Gibbous, 60% visible
Pressure 30.01 in
Visibility 7.0 miles
Clouds Clear
Heat Index 71 °F
Dew Point 67 °F
Humidity 84%
Rainfall 0.00 in
Snow Depth Not available.
UV 1 out of 12
Pollen 9.80 out of 12
Air Quality Not available.
Flu Activity Not available.
METAR KLOM 041215Z AUTO 00000KT 7SM CLR 24/21 A3001 RMK AO1
Pressure 30.01 in
Visibility 7.0 miles
Clouds Clear
Heat Index 71 °F
Dew Point 67 °F
Humidity 84%
Rainfall 0.00 in
Snow Depth Not available.
UV 1 out of 12
Pollen 9.80 out of 12
Air Quality Not available.
Flu Activity Not available.
METAR KLOM 041215Z AUTO 00000KT 7SM CLR 24/21 A3001 RMK AO1

10-Day Weather Forecast

×

Almanac

Astronomy

Sep. 04, 2015 Rise Set
Actual Time
Civil Twilight
Nautical Twilight
Astronomical Twilight
Moon
Length of Visible Light
Length of Day
Tomorrow will be .
, % of the Moon is Illuminated

Today's Extremes

State Highs State Lows

Community

WunderPhotos

Upload Photos

1,852,160 photos uploaded!

WunderBlogs® & News

Nearby

Air Quality

  Air Quality AQ Index Pollutant
Not available.

Snow Depth

Station Depth Elevation

Earthquake Activity

City Distance Mag. Time & Date
Minimum magnitude displayed is 2.5.

Coastal Water Temperatures

Place Temperature

Stations

Nearby Weather Stations

Station Location Temp. Windchill Dew Point Humidity Wind Precip. Elev Updated Type